Time;durP1;ratioP1;P1;durP2;ratioP2;P2;SDS_P1;SDS_P2;PMS_P1;PMS_P2;Temp;Humidity;BMP_temperature;BMP_pressure;BME280_temperature;BME280_humidity;BME280_pressure;Samples;Min_cycle;Max_cycle;Signal;HPM_P1;HPM_P2
2022/07/05 00:00:11;;;;;;;1.65;0.40;;;16.10;99.90;;;;;;5002358;28;20648;-44
2022/07/05 00:02:36;;;;;;;2.60;0.52;;;16.10;99.90;;;;;;5001137;28;20360;-46
2022/07/05 00:05:03;;;;;;;1.58;0.40;;;16.00;99.90;;;;;;4999818;28;20712;-44
2022/07/05 00:07:28;;;;;;;1.67;0.60;;;16.00;99.90;;;;;;4995111;28;20034;-45
2022/07/05 00:09:57;;;;;;;2.58;0.60;;;16.00;99.90;;;;;;5003783;28;20129;-45
2022/07/05 00:12:28;;;;;;;1.73;0.40;;;16.00;99.90;;;;;;5033632;28;20046;-44
2022/07/05 00:14:54;;;;;;;2.13;0.55;;;16.00;99.90;;;;;;5004272;28;20124;-44
2022/07/05 00:17:20;;;;;;;2.20;0.60;;;15.90;99.90;;;;;;4999930;28;20052;-45
2022/07/05 00:19:46;;;;;;;2.65;0.43;;;15.90;99.90;;;;;;5028856;28;20305;-44
2022/07/05 00:22:12;;;;;;;1.45;0.50;;;15.90;99.90;;;;;;5011298;28;20041;-44
2022/07/05 00:24:37;;;;;;;2.72;0.63;;;15.80;99.90;;;;;;5029145;28;20044;-44
2022/07/05 00:27:03;;;;;;;0.98;0.40;;;15.80;99.90;;;;;;5031767;28;20500;-45
2022/07/05 00:29:29;;;;;;;2.50;0.60;;;15.80;99.90;;;;;;5000936;28;20042;-43
2022/07/05 00:31:55;;;;;;;2.17;0.70;;;15.70;99.90;;;;;;4998823;28;20175;-45
2022/07/05 00:34:20;;;;;;;2.00;0.40;;;15.70;99.90;;;;;;4999593;28;20049;-44
2022/07/05 00:36:47;;;;;;;2.05;0.40;;;15.60;99.90;;;;;;5028838;28;20044;-43
2022/07/05 00:39:13;;;;;;;1.33;0.32;;;15.60;99.90;;;;;;4998908;28;20489;-44
2022/07/05 00:41:39;;;;;;;2.30;0.40;;;15.60;99.90;;;;;;5010842;28;20423;-44
2022/07/05 00:44:07;;;;;;;2.47;0.40;;;15.50;99.90;;;;;;4999039;28;20289;-43
2022/07/05 00:46:34;;;;;;;1.50;0.30;;;15.60;99.90;;;;;;5032084;28;20507;-45
2022/07/05 00:49:00;;;;;;;1.48;0.40;;;15.50;99.90;;;;;;5029113;28;20614;-43
2022/07/05 00:51:30;;;;;;;3.80;0.47;;;15.50;99.90;;;;;;4998002;28;20123;-43
2022/07/05 00:53:55;;;;;;;1.27;0.40;;;15.50;99.90;;;;;;5030983;28;20044;-45
2022/07/05 00:56:24;;;;;;;0.90;0.30;;;15.40;99.90;;;;;;5000365;28;20386;-44
2022/07/05 00:58:50;;;;;;;1.00;0.30;;;15.40;99.90;;;;;;4999963;28;20369;-45
2022/07/05 01:01:16;;;;;;;2.50;0.45;;;15.40;99.90;;;;;;5029153;28;20033;-43
2022/07/05 01:03:43;;;;;;;1.48;0.43;;;15.40;99.90;;;;;;5013748;28;20049;-44
2022/07/05 01:06:12;;;;;;;2.40;0.40;;;15.40;99.90;;;;;;5002702;28;20244;-46
2022/07/05 01:08:40;;;;;;;2.17;0.57;;;15.40;99.90;;;;;;4996827;28;20053;-47
2022/07/05 01:11:07;;;;;;;1.83;0.50;;;15.40;99.90;;;;;;4999579;28;20565;-44
2022/07/05 01:13:35;;;;;;;2.75;0.50;;;15.30;99.90;;;;;;4998475;28;20052;-44
2022/07/05 01:16:01;;;;;;;1.45;0.32;;;15.30;99.90;;;;;;5014327;28;20127;-46
2022/07/05 01:18:28;;;;;;;0.95;0.30;;;15.30;99.90;;;;;;4997193;28;20492;-44
2022/07/05 01:20:55;;;;;;;1.58;0.30;;;15.40;99.90;;;;;;4999354;28;20052;-44
2022/07/05 01:23:22;;;;;;;2.35;0.47;;;15.40;99.90;;;;;;5000108;28;20326;-44
2022/07/05 01:25:48;;;;;;;1.65;0.40;;;15.30;99.90;;;;;;4999889;28;20068;-46
2022/07/05 01:28:14;;;;;;;1.90;0.50;;;15.30;99.90;;;;;;5000785;28;20551;-48
2022/07/05 01:30:41;;;;;;;1.58;0.30;;;15.30;99.90;;;;;;4998169;28;20044;-45
2022/07/05 01:33:08;;;;;;;3.00;0.57;;;15.30;99.90;;;;;;4996173;28;20212;-45
2022/07/05 01:35:35;;;;;;;1.13;0.45;;;15.30;99.90;;;;;;4995632;28;20492;-45
2022/07/05 01:38:01;;;;;;;1.23;0.50;;;15.30;99.90;;;;;;5029907;28;20046;-44
2022/07/05 01:40:27;;;;;;;1.88;0.30;;;15.30;99.90;;;;;;4999154;28;20584;-44
2022/07/05 01:42:53;;;;;;;2.10;0.57;;;15.30;99.90;;;;;;5001401;28;20041;-44
2022/07/05 01:48:12;;;;;;;2.17;0.40;;;15.30;99.90;;;;;;4998615;28;20354;-45
2022/07/05 01:50:47;;;;;;;1.33;0.40;;;15.30;99.90;;;;;;5000507;28;20334;-43
2022/07/05 01:53:19;;;;;;;2.00;0.38;;;15.20;99.90;;;;;;5028566;28;20300;-45
2022/07/05 01:55:46;;;;;;;4.05;0.80;;;15.20;99.90;;;;;;4999859;28;20079;-47
2022/07/05 01:58:12;;;;;;;1.13;0.40;;;15.20;99.90;;;;;;4999456;28;20045;-43
2022/07/05 02:00:48;;;;;;;1.80;0.40;;;15.20;99.90;;;;;;5000219;28;20053;-43
2022/07/05 02:03:15;;;;;;;3.42;0.60;;;15.20;99.90;;;;;;4981228;28;20038;-44
2022/07/05 02:05:42;;;;;;;2.17;0.52;;;15.20;99.90;;;;;;4996626;28;20065;-44
2022/07/05 02:08:08;;;;;;;1.92;0.40;;;15.10;99.90;;;;;;5031642;28;20041;-44
2022/07/05 02:10:35;;;;;;;2.20;0.43;;;15.10;99.90;;;;;;4997442;28;20045;-44
2022/07/05 02:13:02;;;;;;;2.33;0.30;;;15.10;99.90;;;;;;5001135;28;20396;-42
2022/07/05 02:15:30;;;;;;;1.40;0.30;;;15.10;99.90;;;;;;4994076;28;20049;-43
2022/07/05 02:17:56;;;;;;;2.70;0.40;;;15.00;99.90;;;;;;5000164;28;20050;-45
2022/07/05 02:20:22;;;;;;;2.08;0.30;;;15.00;99.90;;;;;;4999122;28;20041;-43
2022/07/05 02:22:47;;;;;;;1.17;0.40;;;15.00;99.90;;;;;;5034203;28;20046;-42
2022/07/05 02:25:13;;;;;;;1.35;0.30;;;15.00;99.90;;;;;;4998952;28;20061;-45
2022/07/05 02:27:39;;;;;;;2.95;0.47;;;14.90;99.90;;;;;;5019559;28;20115;-43
2022/07/05 02:30:05;;;;;;;1.33;0.30;;;14.90;99.90;;;;;;4999397;28;20042;-43
2022/07/05 02:32:31;;;;;;;2.78;0.40;;;14.90;99.90;;;;;;4981311;28;20383;-43
2022/07/05 02:34:57;;;;;;;1.85;0.30;;;14.90;99.90;;;;;;5028678;28;20056;-44
2022/07/05 02:37:23;;;;;;;2.22;0.40;;;14.90;99.90;;;;;;5000736;28;20033;-43
2022/07/05 02:39:48;;;;;;;2.17;0.50;;;14.80;99.90;;;;;;5001836;28;20309;-44
2022/07/05 02:42:14;;;;;;;3.63;0.40;;;14.80;99.90;;;;;;5000879;28;20045;-44
2022/07/05 02:44:39;;;;;;;2.47;0.47;;;14.80;99.90;;;;;;5030101;28;20042;-43
2022/07/05 02:47:05;;;;;;;1.83;0.40;;;14.80;99.90;;;;;;4999182;28;20046;-46
2022/07/05 02:49:31;;;;;;;2.38;0.30;;;14.80;99.90;;;;;;5029832;28;20060;-43
2022/07/05 02:51:56;;;;;;;1.67;0.57;;;14.80;99.90;;;;;;4998415;28;20090;-45
2022/07/05 02:54:22;;;;;;;2.00;0.68;;;14.80;99.90;;;;;;4998663;28;20533;-45
2022/07/05 02:56:48;;;;;;;4.47;0.40;;;14.70;99.90;;;;;;4996423;28;20038;-44
2022/07/05 02:59:13;;;;;;;1.88;0.52;;;14.70;99.90;;;;;;4994773;28;20042;-45
2022/07/05 03:01:39;;;;;;;3.33;0.75;;;14.70;99.90;;;;;;4998346;28;20086;-46
2022/07/05 03:04:06;;;;;;;2.67;0.50;;;14.70;99.90;;;;;;4998412;28;20069;-43
2022/07/05 03:06:32;;;;;;;0.70;0.30;;;14.60;99.90;;;;;;4999665;28;20046;-45
2022/07/05 03:08:58;;;;;;;2.45;0.40;;;14.60;99.90;;;;;;5000358;28;20243;-45
2022/07/05 03:11:24;;;;;;;1.45;0.40;;;14.60;99.90;;;;;;5017069;28;20228;-43
2022/07/05 03:13:49;;;;;;;0.80;0.40;;;14.60;99.90;;;;;;5029707;28;20085;-45
2022/07/05 03:16:15;;;;;;;1.85;0.40;;;14.50;99.90;;;;;;5028359;28;20064;-44
2022/07/05 03:18:41;;;;;;;2.10;0.52;;;14.50;99.90;;;;;;4999466;28;20169;-43
2022/07/05 03:21:06;;;;;;;2.17;0.50;;;14.50;99.90;;;;;;5027784;28;20045;-44
2022/07/05 03:23:32;;;;;;;2.15;0.52;;;14.50;99.90;;;;;;4998311;28;20038;-45
2022/07/05 03:25:58;;;;;;;0.63;0.40;;;14.50;99.90;;;;;;5027333;28;20512;-44
2022/07/05 03:28:23;;;;;;;2.72;0.55;;;14.50;99.90;;;;;;4998875;28;20121;-44
2022/07/05 03:30:49;;;;;;;1.80;0.57;;;14.50;99.90;;;;;;5032948;28;20406;-44
2022/07/05 03:33:15;;;;;;;1.08;0.50;;;14.50;99.90;;;;;;5000832;28;20045;-44
2022/07/05 03:35:40;;;;;;;2.85;0.50;;;14.40;99.90;;;;;;5006565;28;20072;-44
2022/07/05 03:38:06;;;;;;;1.10;0.40;;;14.40;99.90;;;;;;5037030;28;20131;-44
2022/07/05 03:40:32;;;;;;;3.10;0.70;;;14.40;99.90;;;;;;5006276;28;20070;-44
2022/07/05 03:42:57;;;;;;;1.17;0.45;;;14.40;99.90;;;;;;5038082;28;20479;-43
2022/07/05 03:45:23;;;;;;;2.08;0.50;;;14.40;99.90;;;;;;5009956;28;20038;-44
2022/07/05 03:47:49;;;;;;;2.92;0.70;;;14.40;99.90;;;;;;5007313;28;20068;-44
2022/07/05 03:50:15;;;;;;;2.63;0.60;;;14.40;99.90;;;;;;5011565;28;20037;-44
2022/07/05 03:52:40;;;;;;;2.58;0.60;;;14.40;99.90;;;;;;5008548;28;20045;-44
2022/07/05 03:55:06;;;;;;;1.30;0.47;;;14.40;99.90;;;;;;5010290;28;20057;-43
2022/07/05 03:57:32;;;;;;;3.28;0.80;;;14.30;99.90;;;;;;5008692;28;20037;-44
2022/07/05 03:59:58;;;;;;;1.45;0.50;;;14.40;99.90;;;;;;5007116;28;20442;-43
2022/07/05 04:02:23;;;;;;;2.95;0.50;;;14.30;99.90;;;;;;5023486;28;20136;-45
2022/07/05 04:04:49;;;;;;;2.05;0.60;;;14.30;99.90;;;;;;5008698;28;20036;-47
2022/07/05 04:07:15;;;;;;;2.03;0.50;;;14.30;99.90;;;;;;5009318;28;20512;-44
2022/07/05 04:09:41;;;;;;;2.60;0.47;;;14.30;99.90;;;;;;5009515;28;20040;-48
2022/07/05 04:12:07;;;;;;;2.25;0.68;;;14.30;99.90;;;;;;5008164;28;20065;-44
2022/07/05 04:14:32;;;;;;;1.60;0.60;;;14.30;99.90;;;;;;5009712;28;20072;-44
2022/07/05 04:16:58;;;;;;;1.40;0.50;;;14.30;99.90;;;;;;4995043;28;20114;-43
2022/07/05 04:19:24;;;;;;;1.45;0.60;;;14.30;99.90;;;;;;5011381;28;20037;-44
2022/07/05 04:21:49;;;;;;;1.10;0.40;;;14.30;99.90;;;;;;5008294;28;20037;-44
2022/07/05 04:24:15;;;;;;;1.52;0.40;;;14.30;99.90;;;;;;5009943;28;20277;-43
2022/07/05 04:26:41;;;;;;;1.10;0.50;;;14.30;99.90;;;;;;5011032;28;20132;-47
2022/07/05 04:29:07;;;;;;;2.25;0.40;;;14.40;99.90;;;;;;5003056;28;20467;-44
2022/07/05 04:31:33;;;;;;;3.03;0.40;;;14.30;99.90;;;;;;5008343;28;20042;-48
2022/07/05 04:33:58;;;;;;;1.20;0.47;;;14.30;99.90;;;;;;5037294;28;20046;-44
2022/07/05 04:36:24;;;;;;;2.65;0.40;;;14.40;99.90;;;;;;5011399;28;20508;-43
2022/07/05 04:38:49;;;;;;;2.65;0.73;;;14.40;99.90;;;;;;5008727;28;20045;-44
2022/07/05 04:41:15;;;;;;;2.53;0.40;;;14.40;99.90;;;;;;5006715;28;20056;-44
2022/07/05 04:43:41;;;;;;;1.90;0.40;;;14.40;99.90;;;;;;5006755;28;20049;-46
2022/07/05 04:46:06;;;;;;;3.15;0.45;;;14.40;99.90;;;;;;5007784;28;20037;-46
2022/07/05 04:48:32;;;;;;;1.98;0.30;;;14.50;99.90;;;;;;5005878;28;20117;-43
2022/07/05 04:50:58;;;;;;;1.50;0.50;;;14.50;99.90;;;;;;5005657;28;20480;-44
2022/07/05 04:53:23;;;;;;;4.25;0.35;;;14.60;99.90;;;;;;5007519;28;20049;-44
2022/07/05 04:55:49;;;;;;;2.50;0.50;;;14.60;99.90;;;;;;5006948;28;20097;-45
2022/07/05 04:58:15;;;;;;;1.33;0.32;;;14.60;99.90;;;;;;5006676;28;20053;-44
2022/07/05 05:00:40;;;;;;;3.30;0.45;;;14.70;99.90;;;;;;5006569;28;20046;-48
2022/07/05 05:03:06;;;;;;;1.00;0.45;;;14.70;99.90;;;;;;4997581;28;20044;-45
2022/07/05 05:05:32;;;;;;;2.47;0.50;;;14.70;99.90;;;;;;4997336;28;20045;-46
2022/07/05 05:07:57;;;;;;;3.45;0.40;;;14.70;99.90;;;;;;4999501;28;20149;-46
2022/07/05 05:10:24;;;;;;;4.35;0.47;;;14.70;99.90;;;;;;4998186;28;20049;-45
2022/07/05 05:12:49;;;;;;;1.65;0.40;;;14.80;99.90;;;;;;5031232;28;20664;-44
2022/07/05 05:15:15;;;;;;;3.08;0.40;;;14.80;99.90;;;;;;4996376;28;20040;-45
2022/07/05 05:17:43;;;;;;;1.63;0.35;;;14.80;99.90;;;;;;4965115;28;20069;-46
2022/07/05 05:20:16;;;;;;;1.92;0.50;;;14.90;99.90;;;;;;4998930;28;20046;-44
2022/07/05 05:22:42;;;;;;;2.25;0.68;;;14.90;99.90;;;;;;4999796;28;20042;-45
2022/07/05 05:25:09;;;;;;;2.25;0.50;;;15.00;99.90;;;;;;4998058;28;20042;-45
2022/07/05 05:27:39;;;;;;;1.15;0.30;;;15.10;99.90;;;;;;5002597;28;20513;-43
2022/07/05 05:30:06;;;;;;;2.55;0.55;;;15.70;99.90;;;;;;4993061;28;20611;-45
2022/07/05 05:32:31;;;;;;;1.67;0.30;;;16.60;99.90;;;;;;5008007;28;20042;-44
2022/07/05 05:34:57;;;;;;;1.80;0.40;;;17.50;99.90;;;;;;5006628;28;20286;-44
2022/07/05 05:37:22;;;;;;;2.15;0.30;;;17.80;99.90;;;;;;5038595;28;20041;-44
2022/07/05 05:39:48;;;;;;;1.00;0.30;;;17.90;99.90;;;;;;4996271;28;20601;-44
2022/07/05 05:42:14;;;;;;;1.48;0.30;;;18.30;99.90;;;;;;5009490;28;20095;-45
2022/07/05 05:44:39;;;;;;;0.93;0.30;;;19.10;99.90;;;;;;5013490;28;20037;-43
2022/07/05 05:47:05;;;;;;;1.25;0.30;;;19.60;99.90;;;;;;5012925;28;20030;-45
2022/07/05 05:49:31;;;;;;;1.02;0.20;;;19.90;99.90;;;;;;5044915;28;20511;-42
2022/07/05 05:51:57;;;;;;;1.52;0.30;;;19.90;99.90;;;;;;5000378;28;20045;-45
2022/07/05 05:54:22;;;;;;;1.60;0.30;;;19.80;99.90;;;;;;4980697;28;20339;-44
2022/07/05 05:56:48;;;;;;;2.80;0.30;;;19.70;99.90;;;;;;5001271;28;20104;-43
2022/07/05 05:59:14;;;;;;;1.83;0.30;;;19.50;99.90;;;;;;4997138;28;20256;-44
2022/07/05 06:01:39;;;;;;;2.28;0.30;;;19.30;99.90;;;;;;4996849;28;20464;-44
2022/07/05 06:04:05;;;;;;;2.08;0.20;;;19.10;99.90;;;;;;4997542;28;20046;-44
2022/07/05 06:06:31;;;;;;;1.92;0.30;;;19.00;99.90;;;;;;5000570;28;20026;-46
2022/07/05 06:08:56;;;;;;;3.63;0.30;;;18.90;99.90;;;;;;4999734;28;20851;-44
2022/07/05 06:11:22;;;;;;;2.05;0.30;;;18.80;99.90;;;;;;4999296;28;20251;-46
2022/07/05 06:13:47;;;;;;;3.28;0.35;;;18.70;99.90;;;;;;4999568;28;20048;-44
2022/07/05 06:16:13;;;;;;;3.97;0.45;;;18.60;99.90;;;;;;4999008;28;20103;-44
2022/07/05 06:18:39;;;;;;;2.78;0.30;;;18.60;99.90;;;;;;4999829;28;20052;-44
2022/07/05 06:21:04;;;;;;;3.20;0.40;;;18.60;99.90;;;;;;4995892;28;20050;-44
2022/07/05 06:23:30;;;;;;;5.53;0.32;;;18.60;99.90;;;;;;4965520;28;20291;-44
2022/07/05 06:25:56;;;;;;;2.95;0.30;;;18.60;99.90;;;;;;5000511;28;20370;-43
2022/07/05 06:28:21;;;;;;;2.90;0.30;;;18.50;99.90;;;;;;4997875;28;20050;-44
2022/07/05 06:30:47;;;;;;;2.20;0.28;;;18.50;99.90;;;;;;4998631;28;20080;-47
2022/07/05 06:33:13;;;;;;;2.85;0.30;;;18.50;99.90;;;;;;4996546;28;20447;-44
2022/07/05 06:35:38;;;;;;;2.25;0.30;;;18.60;99.90;;;;;;4998811;28;20224;-44
2022/07/05 06:38:06;;;;;;;1.92;0.40;;;18.60;99.90;;;;;;5002324;28;20037;-45
2022/07/05 06:40:37;;;;;;;2.13;0.20;;;18.60;99.90;;;;;;5011863;28;20045;-44
2022/07/05 06:43:05;;;;;;;1.77;0.30;;;18.60;99.90;;;;;;5000428;28;20428;-44
2022/07/05 06:45:31;;;;;;;3.10;0.30;;;18.70;99.90;;;;;;4998266;28;20164;-43
2022/07/05 06:47:58;;;;;;;3.00;0.20;;;18.70;99.90;;;;;;5032631;28;20045;-45
2022/07/05 06:50:28;;;;;;;3.05;0.30;;;18.80;99.90;;;;;;5003950;28;20760;-44
2022/07/05 06:52:54;;;;;;;2.22;0.20;;;18.80;99.90;;;;;;5000553;28;20052;-44
2022/07/05 06:55:20;;;;;;;2.65;0.28;;;18.90;99.90;;;;;;5000511;28;20475;-43
2022/07/05 06:57:46;;;;;;;1.98;0.20;;;19.00;99.90;;;;;;5018235;28;20056;-43
2022/07/05 07:00:13;;;;;;;1.27;0.20;;;19.00;99.90;;;;;;5002890;28;20220;-45
2022/07/05 07:02:39;;;;;;;2.95;0.20;;;19.10;99.90;;;;;;5006443;28;20037;-43
2022/07/05 07:05:05;;;;;;;2.85;0.20;;;19.20;99.90;;;;;;4999047;28;20674;-43
2022/07/05 07:10:16;;;;;;;2.72;0.30;;;19.30;99.90;;;;;;5000035;28;20451;-43
2022/07/05 07:12:42;;;;;;;1.48;0.20;;;19.40;99.90;;;;;;5010035;28;20340;-46
2022/07/05 07:15:08;;;;;;;3.75;0.25;;;19.40;99.90;;;;;;5029101;28;20584;-43
2022/07/05 07:17:34;;;;;;;1.38;0.20;;;19.50;99.90;;;;;;5032827;28;20049;-44
2022/07/05 07:19:59;;;;;;;2.13;0.20;;;19.60;99.90;;;;;;5003678;28;20033;-43
2022/07/05 07:22:25;;;;;;;3.20;0.30;;;19.60;99.90;;;;;;5001906;28;20708;-43
2022/07/05 07:24:51;;;;;;;2.38;0.20;;;19.70;99.90;;;;;;5005558;28;20611;-45
2022/07/05 07:27:17;;;;;;;3.83;0.30;;;19.70;99.90;;;;;;5004047;28;20041;-44
2022/07/05 07:29:42;;;;;;;2.25;0.20;;;19.80;99.90;;;;;;5000900;28;20486;-44
2022/07/05 07:32:09;;;;;;;2.20;0.20;;;19.90;99.90;;;;;;5005636;28;20061;-44
2022/07/05 07:34:36;;;;;;;2.38;0.20;;;20.00;99.90;;;;;;5002980;28;20138;-45
2022/07/05 07:37:03;;;;;;;2.90;0.20;;;20.10;99.90;;;;;;5003186;28;20360;-43
2022/07/05 07:39:31;;;;;;;2.50;0.20;;;20.20;99.90;;;;;;5004083;28;20099;-43
2022/07/05 07:41:57;;;;;;;1.80;0.15;;;20.30;99.90;;;;;;5036086;28;20045;-44
2022/07/05 07:44:23;;;;;;;2.15;0.35;;;20.30;99.90;;;;;;5002219;28;20114;-44
2022/07/05 07:46:50;;;;;;;1.52;0.20;;;20.40;99.90;;;;;;5004335;28;20343;-44
2022/07/05 07:49:16;;;;;;;2.30;0.10;;;20.40;99.90;;;;;;5005617;28;21294;-43
2022/07/05 07:51:41;;;;;;;3.67;0.30;;;20.50;99.90;;;;;;5008615;28;20404;-43
2022/07/05 07:54:07;;;;;;;4.53;0.20;;;20.60;99.90;;;;;;5011303;28;20049;-45
2022/07/05 07:56:33;;;;;;;3.05;0.20;;;20.60;99.90;;;;;;5000439;28;20555;-43
2022/07/05 07:59:00;;;;;;;3.85;0.20;;;20.70;99.90;;;;;;5001222;28;20632;-43
2022/07/05 08:01:25;;;;;;;3.97;0.20;;;20.70;99.90;;;;;;5003377;28;20247;-44
2022/07/05 08:03:51;;;;;;;3.10;0.20;;;20.80;99.90;;;;;;5034338;28;20667;-44
2022/07/05 08:06:17;;;;;;;1.92;0.20;;;20.80;99.90;;;;;;5002219;28;20121;-44
2022/07/05 08:08:47;;;;;;;2.80;0.30;;;20.90;99.90;;;;;;4998844;28;20045;-43
2022/07/05 08:11:13;;;;;;;3.28;0.20;;;20.90;99.90;;;;;;5034233;28;20265;-43
2022/07/05 08:13:40;;;;;;;4.25;0.30;;;21.00;99.90;;;;;;5033452;28;20317;-43
2022/07/05 08:16:07;;;;;;;1.27;0.20;;;21.00;99.90;;;;;;5004134;28;20604;-44
2022/07/05 08:21:34;;;;;;;3.65;0.20;;;21.10;99.90;;;;;;5005635;28;20504;-43
2022/07/05 08:24:18;;;;;;;1.85;0.20;;;21.10;99.90;;;;;;5009500;28;20045;-44
2022/07/05 08:26:44;;;;;;;2.55;0.30;;;21.10;99.90;;;;;;5005283;28;20038;-44
2022/07/05 08:29:11;;;;;;;3.90;0.30;;;21.10;99.90;;;;;;5036326;28;20714;-42
2022/07/05 08:31:42;;;;;;;3.40;0.20;;;21.20;99.90;;;;;;5005527;28;20073;-43
2022/07/05 08:34:09;;;;;;;1.73;0.20;;;21.20;99.90;;;;;;5005942;28;20144;-43
2022/07/05 08:36:35;;;;;;;3.55;0.30;;;21.20;99.90;;;;;;5007242;28;20692;-44
2022/07/05 08:39:01;;;;;;;2.70;0.20;;;21.20;99.90;;;;;;5006357;28;20041;-43
2022/07/05 08:41:29;;;;;;;5.05;0.20;;;21.30;99.90;;;;;;5004606;28;20049;-43
2022/07/05 08:43:57;;;;;;;2.42;0.30;;;21.30;99.90;;;;;;5003087;28;20647;-43
2022/07/05 08:46:25;;;;;;;3.05;0.20;;;21.30;99.90;;;;;;5006024;28;20264;-43
2022/07/05 08:48:51;;;;;;;2.75;0.15;;;21.40;99.90;;;;;;5003863;28;20269;-44
2022/07/05 08:51:23;;;;;;;1.80;0.10;;;21.40;99.90;;;;;;5004779;28;20091;-43
2022/07/05 08:53:51;;;;;;;2.15;0.13;;;21.40;99.90;;;;;;5003868;28;20050;-43
2022/07/05 08:56:18;;;;;;;2.88;0.28;;;21.40;99.90;;;;;;5003222;28;20072;-43
2022/07/05 08:58:44;;;;;;;1.45;0.13;;;21.50;99.90;;;;;;5001878;28;20527;-43
2022/07/05 09:01:11;;;;;;;1.10;0.20;;;21.50;99.90;;;;;;5003609;28;20049;-42
2022/07/05 09:03:49;;;;;;;2.85;0.30;;;21.50;99.90;;;;;;5011440;28;20037;-43
2022/07/05 09:06:26;;;;;;;2.05;0.30;;;21.60;99.90;;;;;;5005214;28;20057;-44
2022/07/05 09:08:55;;;;;;;1.85;0.13;;;21.60;99.90;;;;;;5003385;28;20052;-45
2022/07/05 09:11:29;;;;;;;4.30;0.20;;;21.60;99.90;;;;;;5004982;28;20113;-44
2022/07/05 09:13:55;;;;;;;2.40;0.25;;;21.60;99.90;;;;;;5003438;28;20088;-43
2022/07/05 09:16:21;;;;;;;2.60;0.20;;;21.60;99.90;;;;;;5003486;28;20326;-44
2022/07/05 09:18:53;;;;;;;3.92;0.22;;;21.60;99.90;;;;;;5004893;28;20038;-44
2022/07/05 09:21:24;;;;;;;2.53;0.20;;;21.60;99.90;;;;;;5014932;28;20530;-43
2022/07/05 09:23:58;;;;;;;1.63;0.20;;;21.70;99.90;;;;;;5006113;28;20376;-43
2022/07/05 09:26:44;;;;;;;2.08;0.20;;;21.70;99.90;;;;;;5003207;28;20033;-45
2022/07/05 09:29:18;;;;;;;3.63;0.30;;;21.80;99.90;;;;;;5007804;28;20034;-45
2022/07/05 09:31:45;;;;;;;3.65;0.20;;;21.80;99.90;;;;;;5039160;28;20530;-45
2022/07/05 09:34:13;;;;;;;4.05;0.30;;;21.80;99.90;;;;;;5025316;28;20053;-44
2022/07/05 09:36:52;;;;;;;4.18;0.20;;;21.80;99.90;;;;;;5038800;28;20348;-43
2022/07/05 09:39:39;;;;;;;2.95;0.20;;;21.90;99.90;;;;;;5003302;28;20033;-43
2022/07/05 09:42:24;;;;;;;3.55;0.40;;;21.90;99.90;;;;;;5038963;28;20053;-43
2022/07/05 09:44:55;;;;;;;5.43;0.25;;;21.90;99.90;;;;;;4984649;28;20547;-43
2022/07/05 09:47:22;;;;;;;3.42;0.20;;;22.00;99.90;;;;;;5001668;28;20078;-43
2022/07/05 09:49:53;;;;;;;1.73;0.20;;;22.00;99.30;;;;;;5002985;28;20038;-43
2022/07/05 09:52:35;;;;;;;4.18;0.17;;;22.10;99.50;;;;;;5004909;28;20337;-43
2022/07/05 09:55:05;;;;;;;4.18;0.25;;;22.10;99.10;;;;;;5021110;28;20056;-45
2022/07/05 09:57:36;;;;;;;4.45;0.32;;;22.00;99.20;;;;;;5003362;28;20432;-43
2022/07/05 10:00:10;;;;;;;3.58;0.30;;;22.10;98.80;;;;;;5003353;28;20495;-43
2022/07/05 10:02:51;;;;;;;2.13;0.20;;;22.00;98.70;;;;;;5004580;28;20158;-44
2022/07/05 10:05:24;;;;;;;4.57;0.22;;;22.00;98.80;;;;;;5003518;28;20042;-44
2022/07/05 10:07:58;;;;;;;2.47;0.20;;;22.00;99.10;;;;;;5006129;28;20040;-43
2022/07/05 10:10:27;;;;;;;6.25;0.30;;;22.00;99.50;;;;;;5003572;28;20648;-43
2022/07/05 10:13:01;;;;;;;2.58;0.28;;;21.90;99.80;;;;;;5038385;28;20037;-43
2022/07/05 10:15:35;;;;;;;4.93;0.30;;;21.90;99.80;;;;;;5003527;28;20120;-44
2022/07/05 10:18:08;;;;;;;4.07;0.20;;;22.00;99.80;;;;;;5040096;28;20465;-43
2022/07/05 10:20:37;;;;;;;2.63;0.25;;;22.00;99.90;;;;;;5019687;28;20038;-45
2022/07/05 10:23:08;;;;;;;2.30;0.30;;;22.00;99.90;;;;;;5023658;28;20045;-44
2022/07/05 10:25:36;;;;;;;4.13;0.20;;;22.00;99.90;;;;;;5004635;28;20037;-43
2022/07/05 10:28:03;;;;;;;2.67;0.30;;;22.00;99.70;;;;;;5004903;28;20460;-43
2022/07/05 10:30:29;;;;;;;3.53;0.20;;;22.00;99.50;;;;;;5005705;28;20121;-43
2022/07/05 10:32:56;;;;;;;2.15;0.22;;;22.10;99.80;;;;;;5006460;28;20045;-43
2022/07/05 10:35:22;;;;;;;2.22;0.20;;;22.10;99.60;;;;;;5009187;28;20037;-47
2022/07/05 10:37:48;;;;;;;4.03;0.22;;;22.10;99.70;;;;;;5006626;28;20500;-43
2022/07/05 10:40:16;;;;;;;2.90;0.30;;;22.20;99.60;;;;;;5003087;28;20742;-43
2022/07/05 10:42:48;;;;;;;4.68;0.40;;;22.20;99.40;;;;;;5002422;28;20103;-43
2022/07/05 10:45:36;;;;;;;2.95;0.30;;;22.20;98.70;;;;;;5003225;28;20425;-43
2022/07/05 10:48:27;;;;;;;3.00;0.17;;;22.20;98.80;;;;;;5002991;28;20372;-44
2022/07/05 10:50:59;;;;;;;3.15;0.20;;;22.20;98.30;;;;;;5005037;28;20042;-43
2022/07/05 10:53:27;;;;;;;2.88;0.20;;;22.30;98.20;;;;;;5004808;28;20046;-43
2022/07/05 10:55:55;;;;;;;2.40;0.20;;;22.30;98.10;;;;;;5006432;28;20050;-44
2022/07/05 10:58:27;;;;;;;2.45;0.30;;;22.30;97.60;;;;;;5003608;28;20045;-43
2022/07/05 11:01:12;;;;;;;3.55;0.40;;;22.30;97.90;;;;;;5007441;28;20132;-44
2022/07/05 11:03:40;;;;;;;2.35;0.20;;;22.40;98.00;;;;;;5004314;28;20773;-45
2022/07/05 11:06:07;;;;;;;3.15;0.30;;;22.40;97.60;;;;;;5005943;28;20334;-44
2022/07/05 11:08:59;;;;;;;3.22;0.20;;;22.40;97.20;;;;;;5017499;28;20045;-45
2022/07/05 11:11:30;;;;;;;4.50;0.20;;;22.40;97.30;;;;;;4998372;28;20645;-44
2022/07/05 11:14:00;;;;;;;2.38;0.20;;;22.50;97.40;;;;;;5006237;28;20056;-44
2022/07/05 11:16:27;;;;;;;3.38;0.30;;;22.50;97.20;;;;;;5006688;28;20041;-43
2022/07/05 11:19:05;;;;;;;2.92;0.20;;;22.50;97.30;;;;;;5037885;28;20395;-43
2022/07/05 11:21:30;;;;;;;3.58;0.20;;;22.50;97.00;;;;;;5005084;28;20069;-44
2022/07/05 11:24:23;;;;;;;2.90;0.40;;;22.50;97.10;;;;;;5038930;28;20252;-43
2022/07/05 11:26:52;;;;;;;1.88;0.20;;;22.50;97.40;;;;;;5034008;28;20053;-43
2022/07/05 11:29:41;;;;;;;2.33;0.20;;;22.50;97.50;;;;;;5003934;28;20049;-45
2022/07/05 11:32:07;;;;;;;4.10;0.20;;;22.50;97.80;;;;;;5006867;28;20048;-43
2022/07/05 11:34:34;;;;;;;3.50;0.32;;;22.60;97.40;;;;;;5013326;28;20041;-43
2022/07/05 11:37:24;;;;;;;4.43;0.32;;;22.60;97.50;;;;;;5016257;28;20407;-42
2022/07/05 11:40:10;;;;;;;4.75;0.20;;;22.70;97.70;;;;;;5017080;28;20417;-42
2022/07/05 11:42:38;;;;;;;7.13;0.35;;;22.70;97.80;;;;;;5015904;28;20086;-42
2022/07/05 11:45:05;;;;;;;4.57;0.40;;;22.70;97.80;;;;;;5011070;28;20077;-42
2022/07/05 11:47:31;;;;;;;2.85;0.20;;;22.70;98.00;;;;;;5043722;28;20050;-42
2022/07/05 11:49:58;;;;;;;7.10;0.50;;;22.70;98.50;;;;;;5040716;28;20047;-43
2022/07/05 11:52:28;;;;;;;3.60;0.35;;;22.70;98.90;;;;;;5012914;28;20056;-42
2022/07/05 11:54:54;;;;;;;4.25;0.32;;;22.60;99.40;;;;;;5012320;28;20046;-43
2022/07/05 11:57:20;;;;;;;5.53;0.30;;;22.60;99.90;;;;;;5012197;28;20042;-43
2022/07/05 11:59:47;;;;;;;4.45;0.30;;;22.60;99.90;;;;;;5011585;28;20030;-42
2022/07/05 12:02:13;;;;;;;3.97;0.30;;;22.60;99.90;;;;;;5012882;28;20030;-42
2022/07/05 12:04:39;;;;;;;5.30;0.30;;;22.50;99.90;;;;;;5014211;28;20431;-43
2022/07/05 12:07:05;;;;;;;3.28;0.30;;;22.50;99.90;;;;;;5044714;28;20096;-42
2022/07/05 12:15:08;;;;;;;3.80;0.30;;;22.50;99.90;;;;;;5012574;28;20404;-41
2022/07/05 12:17:35;;;;;;;5.40;0.22;;;22.40;99.90;;;;;;5014891;28;20044;-42
2022/07/05 12:20:01;;;;;;;4.55;0.30;;;22.50;99.30;;;;;;5012376;28;20093;-42
2022/07/05 12:22:31;;;;;;;4.00;0.20;;;22.50;99.00;;;;;;5009454;28;20143;-42
2022/07/05 12:24:58;;;;;;;2.75;0.20;;;22.40;98.60;;;;;;5011923;28;20538;-44
2022/07/05 12:27:28;;;;;;;3.33;0.20;;;22.40;97.80;;;;;;5014440;28;20385;-42
2022/07/05 12:29:55;;;;;;;2.95;0.30;;;22.40;97.50;;;;;;5012938;28;20164;-43
2022/07/05 12:32:20;;;;;;;2.60;0.20;;;22.40;97.70;;;;;;5011651;28;20049;-43
2022/07/05 12:34:46;;;;;;;7.05;0.30;;;22.30;97.40;;;;;;5014033;28;20385;-44
2022/07/05 12:37:23;;;;;;;2.83;0.30;;;22.30;97.10;;;;;;5048469;28;20068;-43
2022/07/05 12:39:50;;;;;;;3.60;0.30;;;22.30;96.80;;;;;;5005419;28;20080;-43
2022/07/05 12:42:38;;;;;;;6.70;0.40;;;22.20;96.40;;;;;;5043952;28;20034;-48
2022/07/05 12:45:16;;;;;;;7.53;0.40;;;22.20;95.90;;;;;;5005036;28;20057;-42
2022/07/05 12:47:57;;;;;;;1.85;0.20;;;22.20;95.30;;;;;;5010767;28;20046;-42
2022/07/05 12:50:28;;;;;;;2.28;0.22;;;22.20;94.50;;;;;;5010238;28;20076;-43
2022/07/05 12:59:02;;;;;;;2.13;0.20;;;22.00;93.20;;;;;;5011850;28;20102;-42
2022/07/05 13:01:36;;;;;;;1.95;0.20;;;21.90;93.10;;;;;;5013449;28;20711;-43
2022/07/05 13:04:06;;;;;;;1.80;0.10;;;21.90;93.00;;;;;;5046024;28;20472;-46
2022/07/05 13:06:54;;;;;;;2.78;0.20;;;21.90;92.40;;;;;;5010890;28;20037;-42
2022/07/05 13:09:32;;;;;;;2.13;0.20;;;21.90;92.10;;;;;;5022953;28;20127;-42
2022/07/05 13:12:10;;;;;;;2.00;0.30;;;21.80;92.50;;;;;;5010635;28;20049;-43